Cap Doukato — A8IY8 — position and weather

sailwx.info

Track history (hours):
 
Tides and Currents Weather Stations Pressure Air Temp Water Temp Dewpoint Dewpoint Depression Visibility Wind Speed Wind Dir Waves Ship Positions

Cap Doukato

Last reported at 2018-Jul-17 22:17 UTC. Time now 2018-Jul-19 07:54 UTC.
Position N 27°41' W 014°02'.

Length 207.5 m; beam 29.8 m; draft 11.4 m.

Type: Ship. MMSI: 636018192.

Date/timePositionNaut miles runAvg speedWind from/ knotsBaromVisibWave heightAir tempDewpointWater temp
2018-Jul-17 22:17N 27°41' W 014°02'817.0
2018-Jul-17 21:49N 27°48' W 013°56'617.5
2018-Jul-17 21:28N 27°52' W 013°51'1017.8
2018-Jul-17 20:54N 28°00' W 013°44'718.0
2018-Jul-17 20:30N 28°06' W 013°40'918.0
2018-Jul-17 20:01N 28°14' W 013°35'917.6
2018-Jul-17 19:30N 28°21' W 013°29'917.4
2018-Jul-17 18:57N 28°29' W 013°23'917.3
2018-Jul-17 18:27N 28°37' W 013°18'917.8
2018-Jul-17 17:57N 28°44' W 013°12'817.0
2018-Jul-17 17:31N 28°50' W 013°07'917.7
2018-Jul-17 17:00N 28°58' W 013°02'917.6
2018-Jul-17 16:29N 29°06' W 012°56'3817.3
2018-Jul-17 14:18N 29°37' W 012°33'10716.9
2018-Jul-17 08:00N 31°06' W 011°24'41217.2 010 / 241016.010.8 21.019.521.0
2018-Jul-16 08:04N 35°57' W 005°35'115.8
2018-Jul-16 08:00N 35°58' W 005°34'815.4
2018-Jul-16 07:30N 36°01' W 005°25'714.2
2018-Jul-16 07:00N 36°08' W 005°24'2 0.8
2018-Jul-16 04:20N 36°09' W 005°26'0 0.0
2018-Jul-16 03:44N 36°09' W 005°26'0 0.0
2018-Jul-16 03:20N 36°09' W 005°26'0 0.0
2018-Jul-16 02:56N 36°09' W 005°26'0 0.0
2018-Jul-16 01:32N 36°09' W 005°26'0 0.0
2018-Jul-16 01:08N 36°09' W 005°26'0 0.0
2018-Jul-16 00:44N 36°09' W 005°26'0 0.0
2018-Jul-16 00:26N 36°09' W 005°26'0 0.0
2018-Jul-15 21:56N 36°09' W 005°26'0 0.0
2018-Jul-15 21:26N 36°09' W 005°26'0 0.0
2018-Jul-15 17:08N 36°09' W 005°26'0 0.0
2018-Jul-15 16:50N 36°09' W 005°26'0 0.0
2018-Jul-15 16:08N 36°09' W 005°26'0 0.0
2018-Jul-15 15:56N 36°09' W 005°26'0 0.0
2018-Jul-15 15:22N 36°09' W 005°26'0 0.0
2018-Jul-15 13:28N 36°09' W 005°26'0 0.4
2018-Jul-15 13:00N 36°09' W 005°26'2 4.6
2018-Jul-15 12:30N 36°08' W 005°24'0 1.0
2018-Jul-15 12:00N 36°07' W 005°24'1 3.0
2018-Jul-15 11:30N 36°06' W 005°23'3 5.1
2018-Jul-15 11:00N 36°03' W 005°22'2 3.5
2018-Jul-15 10:30N 36°04' W 005°20'1 1.9
2018-Jul-15 10:00N 36°04' W 005°21'1 1.2
2018-Jul-15 09:30N 36°04' W 005°20'4 7.1
2018-Jul-15 08:59N 36°03' W 005°16'3 7.0
2018-Jul-15 08:30N 36°02' W 005°12'1 1.7
2018-Jul-15 08:00N 36°02' W 005°12'510.1
2018-Jul-15 07:30N 35°60' W 005°18'5 9.9
2018-Jul-15 07:00N 35°58' W 005°24'5 8.9
2018-Jul-15 06:27N 35°56' W 005°29'4 0.2
2018-Jul-14 10:12N 35°54' W 005°33'1 1.5
2018-Jul-14 09:45N 35°53' W 005°33'1 3.5
2018-Jul-14 09:21N 35°55' W 005°33'32 1.4
2018-Jul-13 10:00N 36°00' W 006°12'0 0.0 190 / 61017.010.8 22.020.621.0
2018-Jul-12 10:00N 36°00' W 006°12'7 0.2 220 / 91017.010.8 23.021.622.0
2018-Jul-11 02:57N 36°06' W 006°18'0 0.0
2018-Jul-11 02:29N 36°06' W 006°18'0 0.0
2018-Jul-10 10:38N 36°06' W 006°18'711.6
2018-Jul-10 10:00N 36°00' W 006°12'7 1.2 230 / 161019.010.8 22.020.622.0
2018-Jul-10 04:01N 36°06' W 006°18'0 0.0
2018-Jul-09 23:54N 36°06' W 006°18'0 0.0
2018-Jul-09 23:29N 36°06' W 006°18'6 0.4
2018-Jul-09 10:00N 36°00' W 006°18'   190 / 91019.010.8 23.021.620.0
Track history (hours):
 
Tides and Currents Weather Stations Pressure Air Temp Water Temp Dewpoint Dewpoint Depression Visibility Wind Speed Wind Dir Waves Ship Positions

Cap Doukato

Last reported at 2018-Jul-17 22:17 UTC. Time now 2018-Jul-19 07:54 UTC.
Position N 27°41' W 014°02'.

Length 207.5 m; beam 29.8 m; draft 11.4 m.

Type: Ship. MMSI: 636018192.

Date/timePositionNaut miles runAvg speedWind from/ knotsBaromVisibWave heightAir tempDewpointWater temp
2018-Jul-17 22:17N 27°41' W 014°02'817.0
2018-Jul-17 21:49N 27°48' W 013°56'617.5
2018-Jul-17 21:28N 27°52' W 013°51'1017.8
2018-Jul-17 20:54N 28°00' W 013°44'718.0
2018-Jul-17 20:30N 28°06' W 013°40'918.0
2018-Jul-17 20:01N 28°14' W 013°35'917.6
2018-Jul-17 19:30N 28°21' W 013°29'917.4
2018-Jul-17 18:57N 28°29' W 013°23'917.3
2018-Jul-17 18:27N 28°37' W 013°18'917.8
2018-Jul-17 17:57N 28°44' W 013°12'817.0
2018-Jul-17 17:31N 28°50' W 013°07'917.7
2018-Jul-17 17:00N 28°58' W 013°02'917.6
2018-Jul-17 16:29N 29°06' W 012°56'3817.3
2018-Jul-17 14:18N 29°37' W 012°33'10716.9
2018-Jul-17 08:00N 31°06' W 011°24'41217.2 010 / 241016.010.8 21.019.521.0
2018-Jul-16 08:04N 35°57' W 005°35'115.8
2018-Jul-16 08:00N 35°58' W 005°34'815.4
2018-Jul-16 07:30N 36°01' W 005°25'714.2
2018-Jul-16 07:00N 36°08' W 005°24'2 0.8
2018-Jul-16 04:20N 36°09' W 005°26'0 0.0
2018-Jul-16 03:44N 36°09' W 005°26'0 0.0
2018-Jul-16 03:20N 36°09' W 005°26'0 0.0
2018-Jul-16 02:56N 36°09' W 005°26'0 0.0
2018-Jul-16 01:32N 36°09' W 005°26'0 0.0
2018-Jul-16 01:08N 36°09' W 005°26'0 0.0
2018-Jul-16 00:44N 36°09' W 005°26'0 0.0
2018-Jul-16 00:26N 36°09' W 005°26'0 0.0
2018-Jul-15 21:56N 36°09' W 005°26'0 0.0
2018-Jul-15 21:26N 36°09' W 005°26'0 0.0
2018-Jul-15 17:08N 36°09' W 005°26'0 0.0
2018-Jul-15 16:50N 36°09' W 005°26'0 0.0
2018-Jul-15 16:08N 36°09' W 005°26'0 0.0
2018-Jul-15 15:56N 36°09' W 005°26'0 0.0
2018-Jul-15 15:22N 36°09' W 005°26'0 0.0
2018-Jul-15 13:28N 36°09' W 005°26'0 0.4
2018-Jul-15 13:00N 36°09' W 005°26'2 4.6
2018-Jul-15 12:30N 36°08' W 005°24'0 1.0
2018-Jul-15 12:00N 36°07' W 005°24'1 3.0
2018-Jul-15 11:30N 36°06' W 005°23'3 5.1
2018-Jul-15 11:00N 36°03' W 005°22'2 3.5
2018-Jul-15 10:30N 36°04' W 005°20'1 1.9
2018-Jul-15 10:00N 36°04' W 005°21'1 1.2
2018-Jul-15 09:30N 36°04' W 005°20'4 7.1
2018-Jul-15 08:59N 36°03' W 005°16'3 7.0
2018-Jul-15 08:30N 36°02' W 005°12'1 1.7
2018-Jul-15 08:00N 36°02' W 005°12'510.1
2018-Jul-15 07:30N 35°60' W 005°18'5 9.9
2018-Jul-15 07:00N 35°58' W 005°24'5 8.9
2018-Jul-15 06:27N 35°56' W 005°29'4 0.2
2018-Jul-14 10:12N 35°54' W 005°33'1 1.5
2018-Jul-14 09:45N 35°53' W 005°33'1 3.5
2018-Jul-14 09:21N 35°55' W 005°33'32 1.4
2018-Jul-13 10:00N 36°00' W 006°12'0 0.0 190 / 61017.010.8 22.020.621.0
2018-Jul-12 10:00N 36°00' W 006°12'7 0.2 220 / 91017.010.8 23.021.622.0
2018-Jul-11 02:57N 36°06' W 006°18'0 0.0
2018-Jul-11 02:29N 36°06' W 006°18'0 0.0
2018-Jul-10 10:38N 36°06' W 006°18'711.6
2018-Jul-10 10:00N 36°00' W 006°12'7 1.2 230 / 161019.010.8 22.020.622.0
2018-Jul-10 04:01N 36°06' W 006°18'0 0.0
2018-Jul-09 23:54N 36°06' W 006°18'0 0.0
2018-Jul-09 23:29N 36°06' W 006°18'6 0.4
2018-Jul-09 10:00N 36°00' W 006°18'   190 / 91019.010.8 23.021.620.0

Dump ship's entire track history